sensor_id;sensor_type;location;lat;lon;timestamp;temperature;humidity
9662;DHT22;24982;52.344;12.990;2023-04-01T00:02:44;10.30;99.90
9662;DHT22;24982;52.344;12.990;2023-04-01T00:05:46;9.80;99.90
9662;DHT22;24982;52.344;12.990;2023-04-01T00:08:50;10.30;99.90
9662;DHT22;24982;52.344;12.990;2023-04-01T00:11:53;10.30;99.90
9662;DHT22;24982;52.344;12.990;2023-04-01T00:14:55;10.30;99.90
9662;DHT22;24982;52.344;12.990;2023-04-01T00:17:57;10.30;99.90
9662;DHT22;24982;52.344;12.990;2023-04-01T00:20:59;10.30;99.90
9662;DHT22;24982;52.344;12.990;2023-04-01T00:24:03;10.30;99.90
9662;DHT22;24982;52.344;12.990;2023-04-01T00:27:05;10.30;99.90
9662;DHT22;24982;52.344;12.990;2023-04-01T00:30:09;10.30;99.90
9662;DHT22;24982;52.344;12.990;2023-04-01T00:33:11;10.30;99.90
9662;DHT22;24982;52.344;12.990;2023-04-01T00:36:15;10.30;99.90
9662;DHT22;24982;52.344;12.990;2023-04-01T00:39:19;10.30;99.90
9662;DHT22;24982;52.344;12.990;2023-04-01T00:42:22;10.20;99.90
9662;DHT22;24982;52.344;12.990;2023-04-01T00:45:28;10.20;99.90
9662;DHT22;24982;52.344;12.990;2023-04-01T00:48:34;10.20;99.90
9662;DHT22;24982;52.344;12.990;2023-04-01T00:51:39;10.10;99.90
9662;DHT22;24982;52.344;12.990;2023-04-01T00:54:45;10.20;99.90
9662;DHT22;24982;52.344;12.990;2023-04-01T00:57:48;10.20;99.90
9662;DHT22;24982;52.344;12.990;2023-04-01T01:00:52;10.10;99.90
9662;DHT22;24982;52.344;12.990;2023-04-01T01:03:55;10.10;99.90
9662;DHT22;24982;52.344;12.990;2023-04-01T01:07:07;10.10;99.90
9662;DHT22;24982;52.344;12.990;2023-04-01T01:10:18;10.10;99.90
9662;DHT22;24982;52.344;12.990;2023-04-01T01:13:24;10.00;99.90
9662;DHT22;24982;52.344;12.990;2023-04-01T01:16:30;10.10;99.90
9662;DHT22;24982;52.344;12.990;2023-04-01T01:27:06;10.00;99.90
9662;DHT22;24982;52.344;12.990;2023-04-01T01:30:26;9.90;99.90
9662;DHT22;24982;52.344;12.990;2023-04-01T01:34:00;9.90;99.90
9662;DHT22;24982;52.344;12.990;2023-04-01T01:37:09;10.00;99.90
9662;DHT22;24982;52.344;12.990;2023-04-01T01:40:13;10.20;99.90
9662;DHT22;24982;52.344;12.990;2023-04-01T01:43:19;10.00;99.90
9662;DHT22;24982;52.344;12.990;2023-04-01T01:46:24;10.00;99.90
9662;DHT22;24982;52.344;12.990;2023-04-01T01:49:27;10.10;99.90
9662;DHT22;24982;52.344;12.990;2023-04-01T01:52:32;10.00;99.90
9662;DHT22;24982;52.344;12.990;2023-04-01T01:55:35;10.00;99.90
9662;DHT22;24982;52.344;12.990;2023-04-01T01:58:40;9.90;99.90
9662;DHT22;24982;52.344;12.990;2023-04-01T02:01:51;9.90;99.90
9662;DHT22;24982;52.344;12.990;2023-04-01T02:04:55;9.90;99.90
9662;DHT22;24982;52.344;12.990;2023-04-01T02:08:02;9.90;99.90
9662;DHT22;24982;52.344;12.990;2023-04-01T02:11:06;9.90;99.90
9662;DHT22;24982;52.344;12.990;2023-04-01T02:14:15;9.90;99.90
9662;DHT22;24982;52.344;12.990;2023-04-01T02:17:20;10.00;99.90
9662;DHT22;24982;52.344;12.990;2023-04-01T02:20:23;10.00;99.90
9662;DHT22;24982;52.344;12.990;2023-04-01T02:23:28;10.00;99.90
9662;DHT22;24982;52.344;12.990;2023-04-01T02:26:30;10.00;99.90
9662;DHT22;24982;52.344;12.990;2023-04-01T02:29:33;10.00;99.90
9662;DHT22;24982;52.344;12.990;2023-04-01T02:32:35;10.00;99.90
9662;DHT22;24982;52.344;12.990;2023-04-01T02:35:38;10.10;99.90
9662;DHT22;24982;52.344;12.990;2023-04-01T02:38:44;10.20;99.90
9662;DHT22;24982;52.344;12.990;2023-04-01T02:41:46;10.20;99.90
9662;DHT22;24982;52.344;12.990;2023-04-01T02:44:48;10.20;99.90
9662;DHT22;24982;52.344;12.990;2023-04-01T02:47:50;10.30;99.90
9662;DHT22;24982;52.344;12.990;2023-04-01T02:50:52;10.30;99.90
9662;DHT22;24982;52.344;12.990;2023-04-01T02:53:56;10.30;99.90
9662;DHT22;24982;52.344;12.990;2023-04-01T02:56:58;10.30;99.90
9662;DHT22;24982;52.344;12.990;2023-04-01T03:00:00;10.30;99.90
9662;DHT22;24982;52.344;12.990;2023-04-01T03:03:02;10.30;99.90
9662;DHT22;24982;52.344;12.990;2023-04-01T03:06:05;10.30;99.90
9662;DHT22;24982;52.344;12.990;2023-04-01T03:09:08;10.30;99.90
9662;DHT22;24982;52.344;12.990;2023-04-01T03:12:11;10.30;99.90
9662;DHT22;24982;52.344;12.990;2023-04-01T03:15:21;10.30;99.90
9662;DHT22;24982;52.344;12.990;2023-04-01T03:18:23;10.30;99.90
9662;DHT22;24982;52.344;12.990;2023-04-01T03:21:26;10.50;99.90
9662;DHT22;24982;52.344;12.990;2023-04-01T03:24:29;10.20;99.90
9662;DHT22;24982;52.344;12.990;2023-04-01T03:27:31;10.20;99.90
9662;DHT22;24982;52.344;12.990;2023-04-01T03:30:33;10.20;99.90
9662;DHT22;24982;52.344;12.990;2023-04-01T03:33:36;10.50;99.90
9662;DHT22;24982;52.344;12.990;2023-04-01T03:36:38;10.20;99.90
9662;DHT22;24982;52.344;12.990;2023-04-01T03:39:41;10.20;99.90
9662;DHT22;24982;52.344;12.990;2023-04-01T03:42:43;10.20;99.90
9662;DHT22;24982;52.344;12.990;2023-04-01T03:45:46;10.10;99.90
9662;DHT22;24982;52.344;12.990;2023-04-01T03:48:48;10.10;99.90
9662;DHT22;24982;52.344;12.990;2023-04-01T03:51:50;10.10;99.90
9662;DHT22;24982;52.344;12.990;2023-04-01T03:54:54;10.10;99.90
9662;DHT22;24982;52.344;12.990;2023-04-01T03:57:56;10.10;99.90
9662;DHT22;24982;52.344;12.990;2023-04-01T04:00:58;10.20;99.90
9662;DHT22;24982;52.344;12.990;2023-04-01T04:04:00;10.20;99.90
9662;DHT22;24982;52.344;12.990;2023-04-01T04:07:02;10.10;99.90
9662;DHT22;24982;52.344;12.990;2023-04-01T04:10:18;10.10;99.90
9662;DHT22;24982;52.344;12.990;2023-04-01T04:13:20;10.10;99.90
9662;DHT22;24982;52.344;12.990;2023-04-01T04:16:29;10.20;99.90
9662;DHT22;24982;52.344;12.990;2023-04-01T04:19:34;10.20;99.90
9662;DHT22;24982;52.344;12.990;2023-04-01T04:22:36;10.20;99.90
9662;DHT22;24982;52.344;12.990;2023-04-01T04:25:53;10.20;99.90
9662;DHT22;24982;52.344;12.990;2023-04-01T04:28:55;10.20;99.90
9662;DHT22;24982;52.344;12.990;2023-04-01T04:31:57;10.20;99.90
9662;DHT22;24982;52.344;12.990;2023-04-01T04:34:59;10.10;99.90
9662;DHT22;24982;52.344;12.990;2023-04-01T04:38:01;10.10;99.90
9662;DHT22;24982;52.344;12.990;2023-04-01T04:41:08;10.10;99.90
9662;DHT22;24982;52.344;12.990;2023-04-01T04:44:11;10.20;99.90
9662;DHT22;24982;52.344;12.990;2023-04-01T04:47:13;10.10;99.90
9662;DHT22;24982;52.344;12.990;2023-04-01T04:50:15;10.10;99.90
9662;DHT22;24982;52.344;12.990;2023-04-01T04:53:19;10.10;99.90
9662;DHT22;24982;52.344;12.990;2023-04-01T04:56:22;10.10;99.90
9662;DHT22;24982;52.344;12.990;2023-04-01T04:59:37;10.10;99.90
9662;DHT22;24982;52.344;12.990;2023-04-01T05:02:46;10.10;99.90
9662;DHT22;24982;52.344;12.990;2023-04-01T05:05:49;10.10;99.90
9662;DHT22;24982;52.344;12.990;2023-04-01T05:08:52;10.10;99.90
9662;DHT22;24982;52.344;12.990;2023-04-01T05:11:55;10.10;99.90
9662;DHT22;24982;52.344;12.990;2023-04-01T05:14:59;10.00;99.90
9662;DHT22;24982;52.344;12.990;2023-04-01T05:18:01;10.00;99.90
9662;DHT22;24982;52.344;12.990;2023-04-01T05:21:04;10.00;99.90
9662;DHT22;24982;52.344;12.990;2023-04-01T05:24:08;9.90;99.90
9662;DHT22;24982;52.344;12.990;2023-04-01T05:27:12;9.90;99.90
9662;DHT22;24982;52.344;12.990;2023-04-01T05:30:16;9.90;99.90
9662;DHT22;24982;52.344;12.990;2023-04-01T05:33:33;10.00;99.90
9662;DHT22;24982;52.344;12.990;2023-04-01T05:36:36;10.00;99.90
9662;DHT22;24982;52.344;12.990;2023-04-01T05:39:39;10.00;99.90
9662;DHT22;24982;52.344;12.990;2023-04-01T05:42:43;10.10;99.90
9662;DHT22;24982;52.344;12.990;2023-04-01T05:45:46;10.10;99.90
9662;DHT22;24982;52.344;12.990;2023-04-01T05:48:48;10.20;99.90
9662;DHT22;24982;52.344;12.990;2023-04-01T05:51:52;10.20;99.90
9662;DHT22;24982;52.344;12.990;2023-04-01T05:54:54;10.30;99.90
9662;DHT22;24982;52.344;12.990;2023-04-01T05:57:58;10.30;99.90
9662;DHT22;24982;52.344;12.990;2023-04-01T06:01:03;10.30;99.90
9662;DHT22;24982;52.344;12.990;2023-04-01T06:04:05;10.30;99.90
9662;DHT22;24982;52.344;12.990;2023-04-01T06:07:15;10.30;99.90
9662;DHT22;24982;52.344;12.990;2023-04-01T06:10:19;10.20;99.90
9662;DHT22;24982;52.344;12.990;2023-04-01T06:13:36;10.30;99.90
9662;DHT22;24982;52.344;12.990;2023-04-01T06:16:48;10.30;99.90
9662;DHT22;24982;52.344;12.990;2023-04-01T06:20:00;10.40;99.90
9662;DHT22;24982;52.344;12.990;2023-04-01T06:23:14;10.50;99.90
9662;DHT22;24982;52.344;12.990;2023-04-01T06:26:26;10.50;99.90
9662;DHT22;24982;52.344;12.990;2023-04-01T06:29:49;10.50;99.90
9662;DHT22;24982;52.344;12.990;2023-04-01T06:33:20;10.50;99.90
9662;DHT22;24982;52.344;12.990;2023-04-01T06:36:40;10.40;99.90
9662;DHT22;24982;52.344;12.990;2023-04-01T06:40:09;10.50;99.90
9662;DHT22;24982;52.344;12.990;2023-04-01T06:43:20;10.50;99.90
9662;DHT22;24982;52.344;12.990;2023-04-01T06:46:45;10.50;99.90
9662;DHT22;24982;52.344;12.990;2023-04-01T06:50:03;10.50;99.90
9662;DHT22;24982;52.344;12.990;2023-04-01T06:53:48;10.50;99.90
9662;DHT22;24982;52.344;12.990;2023-04-01T06:57:29;10.50;99.90
9662;DHT22;24982;52.344;12.990;2023-04-01T07:00:37;10.30;99.90
9662;DHT22;24982;52.344;12.990;2023-04-01T07:03:47;10.70;99.90
9662;DHT22;24982;52.344;12.990;2023-04-01T07:06:53;10.60;99.90
9662;DHT22;24982;52.344;12.990;2023-04-01T07:09:57;10.70;99.90
9662;DHT22;24982;52.344;12.990;2023-04-01T07:13:06;10.60;99.90
9662;DHT22;24982;52.344;12.990;2023-04-01T07:16:29;10.70;99.90
9662;DHT22;24982;52.344;12.990;2023-04-01T07:19:39;10.80;99.90
9662;DHT22;24982;52.344;12.990;2023-04-01T07:22:45;10.90;99.90
9662;DHT22;24982;52.344;12.990;2023-04-01T07:26:00;10.80;99.90
9662;DHT22;24982;52.344;12.990;2023-04-01T07:29:10;10.90;99.90
9662;DHT22;24982;52.344;12.990;2023-04-01T07:32:32;10.90;99.90
9662;DHT22;24982;52.344;12.990;2023-04-01T07:35:47;11.00;99.90
9662;DHT22;24982;52.344;12.990;2023-04-01T07:38:59;11.00;99.90
9662;DHT22;24982;52.344;12.990;2023-04-01T07:42:37;11.10;99.90
9662;DHT22;24982;52.344;12.990;2023-04-01T07:45:48;11.20;99.90
9662;DHT22;24982;52.344;12.990;2023-04-01T07:48:57;11.10;99.90
9662;DHT22;24982;52.344;12.990;2023-04-01T07:52:05;11.00;99.90
9662;DHT22;24982;52.344;12.990;2023-04-01T07:55:18;11.00;99.90
9662;DHT22;24982;52.344;12.990;2023-04-01T07:58:25;11.10;99.90
9662;DHT22;24982;52.344;12.990;2023-04-01T08:01:35;11.20;99.90
9662;DHT22;24982;52.344;12.990;2023-04-01T08:04:53;11.30;99.90
9662;DHT22;24982;52.344;12.990;2023-04-01T08:08:06;11.20;99.90
9662;DHT22;24982;52.344;12.990;2023-04-01T08:11:50;11.30;99.90
9662;DHT22;24982;52.344;12.990;2023-04-01T08:15:21;11.30;99.90
9662;DHT22;24982;52.344;12.990;2023-04-01T08:18:43;11.40;99.90
9662;DHT22;24982;52.344;12.990;2023-04-01T08:21:51;11.40;99.90
9662;DHT22;24982;52.344;12.990;2023-04-01T08:24:58;11.40;99.90
9662;DHT22;24982;52.344;12.990;2023-04-01T08:28:09;11.50;99.90
9662;DHT22;24982;52.344;12.990;2023-04-01T08:31:16;11.40;99.90
9662;DHT22;24982;52.344;12.990;2023-04-01T08:34:23;11.50;99.90
9662;DHT22;24982;52.344;12.990;2023-04-01T08:37:31;11.50;99.90
9662;DHT22;24982;52.344;12.990;2023-04-01T08:40:57;11.50;99.90
9662;DHT22;24982;52.344;12.990;2023-04-01T08:44:32;11.50;99.90
9662;DHT22;24982;52.344;12.990;2023-04-01T08:48:07;11.60;99.90
9662;DHT22;24982;52.344;12.990;2023-04-01T08:51:41;11.60;99.90
9662;DHT22;24982;52.344;12.990;2023-04-01T08:54:55;11.60;99.90
9662;DHT22;24982;52.344;12.990;2023-04-01T09:02:30;11.80;99.90
9662;DHT22;24982;52.344;12.990;2023-04-01T09:12:54;11.80;99.90
9662;DHT22;24982;52.344;12.990;2023-04-01T09:16:13;11.80;99.90
9662;DHT22;24982;52.344;12.990;2023-04-01T09:19:25;11.90;99.90
9662;DHT22;24982;52.344;12.990;2023-04-01T09:22:45;11.80;99.90
9662;DHT22;24982;52.344;12.990;2023-04-01T09:25:57;11.90;99.90
9662;DHT22;24982;52.344;12.990;2023-04-01T09:29:09;12.00;99.90
9662;DHT22;24982;52.344;12.990;2023-04-01T09:36:04;12.10;99.90
9662;DHT22;24982;52.344;12.990;2023-04-01T09:39:25;12.10;99.90
9662;DHT22;24982;52.344;12.990;2023-04-01T09:42:42;12.20;99.90
9662;DHT22;24982;52.344;12.990;2023-04-01T09:46:14;12.30;99.90
9662;DHT22;24982;52.344;12.990;2023-04-01T09:53:07;12.40;99.90
9662;DHT22;24982;52.344;12.990;2023-04-01T10:00:09;12.60;99.90
9662;DHT22;24982;52.344;12.990;2023-04-01T10:11:12;12.70;99.90
9662;DHT22;24982;52.344;12.990;2023-04-01T10:14:42;12.70;99.90
9662;DHT22;24982;52.344;12.990;2023-04-01T10:18:48;12.70;99.90
9662;DHT22;24982;52.344;12.990;2023-04-01T10:22:17;12.60;99.90
9662;DHT22;24982;52.344;12.990;2023-04-01T10:29:25;12.40;99.90
9662;DHT22;24982;52.344;12.990;2023-04-01T10:40:17;12.30;99.90
9662;DHT22;24982;52.344;12.990;2023-04-01T10:44:11;12.40;99.90
9662;DHT22;24982;52.344;12.990;2023-04-01T10:47:46;12.30;99.90
9662;DHT22;24982;52.344;12.990;2023-04-01T10:51:02;12.20;99.90
9662;DHT22;24982;52.344;12.990;2023-04-01T10:54:21;12.00;99.90
9662;DHT22;24982;52.344;12.990;2023-04-01T11:07:00;11.90;99.90
9662;DHT22;24982;52.344;12.990;2023-04-01T11:10:52;11.90;99.90
9662;DHT22;24982;52.344;12.990;2023-04-01T11:14:42;11.90;99.90
9662;DHT22;24982;52.344;12.990;2023-04-01T11:22:09;12.00;99.90
9662;DHT22;24982;52.344;12.990;2023-04-01T11:25:36;12.00;99.90
9662;DHT22;24982;52.344;12.990;2023-04-01T11:29:19;11.90;99.90
9662;DHT22;24982;52.344;12.990;2023-04-01T11:32:39;11.90;99.90
9662;DHT22;24982;52.344;12.990;2023-04-01T11:36:04;11.80;99.90
9662;DHT22;24982;52.344;12.990;2023-04-01T11:39:21;11.70;99.90
9662;DHT22;24982;52.344;12.990;2023-04-01T11:42:42;11.60;99.90
9662;DHT22;24982;52.344;12.990;2023-04-01T11:46:17;11.50;99.90
9662;DHT22;24982;52.344;12.990;2023-04-01T11:49:33;11.40;99.90
9662;DHT22;24982;52.344;12.990;2023-04-01T11:53:15;11.50;99.90
9662;DHT22;24982;52.344;12.990;2023-04-01T11:56:51;11.50;99.90
9662;DHT22;24982;52.344;12.990;2023-04-01T12:03:54;11.50;99.90
9662;DHT22;24982;52.344;12.990;2023-04-01T12:07:06;11.50;99.90
9662;DHT22;24982;52.344;12.990;2023-04-01T12:10:18;11.60;99.90
9662;DHT22;24982;52.344;12.990;2023-04-01T12:13:33;11.50;99.90
9662;DHT22;24982;52.344;12.990;2023-04-01T12:16:58;11.40;99.90
9662;DHT22;24982;52.344;12.990;2023-04-01T12:20:16;11.30;99.90
9662;DHT22;24982;52.344;12.990;2023-04-01T12:23:50;11.20;99.90
9662;DHT22;24982;52.344;12.990;2023-04-01T12:27:06;11.20;99.90
9662;DHT22;24982;52.344;12.990;2023-04-01T12:30:34;11.10;99.90
9662;DHT22;24982;52.344;12.990;2023-04-01T12:34:13;11.10;99.90
9662;DHT22;24982;52.344;12.990;2023-04-01T12:37:29;11.20;99.90
9662;DHT22;24982;52.344;12.990;2023-04-01T12:40:49;11.20;99.90
9662;DHT22;24982;52.344;12.990;2023-04-01T12:44:22;11.10;99.90
9662;DHT22;24982;52.344;12.990;2023-04-01T12:47:49;11.00;99.90
9662;DHT22;24982;52.344;12.990;2023-04-01T13:05:22;10.80;99.90
9662;DHT22;24982;52.344;12.990;2023-04-01T13:08:37;10.80;99.90
9662;DHT22;24982;52.344;12.990;2023-04-01T13:11:56;10.90;99.90
9662;DHT22;24982;52.344;12.990;2023-04-01T13:15:16;11.00;99.90
9662;DHT22;24982;52.344;12.990;2023-04-01T13:18:29;11.10;99.90
9662;DHT22;24982;52.344;12.990;2023-04-01T13:21:46;11.10;99.90
9662;DHT22;24982;52.344;12.990;2023-04-01T13:24:59;11.10;99.90
9662;DHT22;24982;52.344;12.990;2023-04-01T13:28:12;11.10;99.90
9662;DHT22;24982;52.344;12.990;2023-04-01T13:31:34;11.10;99.90
9662;DHT22;24982;52.344;12.990;2023-04-01T13:34:56;11.10;99.90
9662;DHT22;24982;52.344;12.990;2023-04-01T13:38:28;11.10;99.90
9662;DHT22;24982;52.344;12.990;2023-04-01T13:41:43;11.00;99.90
9662;DHT22;24982;52.344;12.990;2023-04-01T13:44:54;10.90;99.90
9662;DHT22;24982;52.344;12.990;2023-04-01T13:48:24;10.90;99.90
9662;DHT22;24982;52.344;12.990;2023-04-01T13:55:27;10.70;99.90
9662;DHT22;24982;52.344;12.990;2023-04-01T13:58:39;10.60;99.90
9662;DHT22;24982;52.344;12.990;2023-04-01T14:01:49;10.50;99.90
9662;DHT22;24982;52.344;12.990;2023-04-01T14:05:09;10.50;99.90
9662;DHT22;24982;52.344;12.990;2023-04-01T14:08:26;10.50;99.90
9662;DHT22;24982;52.344;12.990;2023-04-01T14:11:36;10.50;99.90
9662;DHT22;24982;52.344;12.990;2023-04-01T14:14:51;10.40;99.90
9662;DHT22;24982;52.344;12.990;2023-04-01T14:18:05;10.30;99.90
9662;DHT22;24982;52.344;12.990;2023-04-01T14:21:20;10.00;99.90
9662;DHT22;24982;52.344;12.990;2023-04-01T14:24:36;10.30;99.90
9662;DHT22;24982;52.344;12.990;2023-04-01T14:27:54;10.40;99.90
9662;DHT22;24982;52.344;12.990;2023-04-01T14:31:22;10.30;99.90
9662;DHT22;24982;52.344;12.990;2023-04-01T14:34:35;10.20;99.90
9662;DHT22;24982;52.344;12.990;2023-04-01T14:37:55;10.00;99.90
9662;DHT22;24982;52.344;12.990;2023-04-01T14:41:17;10.00;99.90
9662;DHT22;24982;52.344;12.990;2023-04-01T14:44:45;10.00;99.90
9662;DHT22;24982;52.344;12.990;2023-04-01T14:47:56;10.00;99.90
9662;DHT22;24982;52.344;12.990;2023-04-01T14:51:08;10.10;99.90
9662;DHT22;24982;52.344;12.990;2023-04-01T14:54:15;10.10;99.90
9662;DHT22;24982;52.344;12.990;2023-04-01T14:57:24;10.10;99.90
9662;DHT22;24982;52.344;12.990;2023-04-01T15:00:41;10.00;99.90
9662;DHT22;24982;52.344;12.990;2023-04-01T15:03:53;10.10;99.90
9662;DHT22;24982;52.344;12.990;2023-04-01T15:07:10;10.10;99.90
9662;DHT22;24982;52.344;12.990;2023-04-01T15:10:31;10.10;99.90
9662;DHT22;24982;52.344;12.990;2023-04-01T15:13:51;10.10;99.90
9662;DHT22;24982;52.344;12.990;2023-04-01T15:17:04;10.00;99.90
9662;DHT22;24982;52.344;12.990;2023-04-01T15:20:30;10.00;99.90
9662;DHT22;24982;52.344;12.990;2023-04-01T15:23:45;10.00;99.90
9662;DHT22;24982;52.344;12.990;2023-04-01T15:30:27;9.90;99.90
9662;DHT22;24982;52.344;12.990;2023-04-01T15:33:42;9.90;99.90
9662;DHT22;24982;52.344;12.990;2023-04-01T15:36:53;9.90;99.90
9662;DHT22;24982;52.344;12.990;2023-04-01T15:40:01;9.90;99.90
9662;DHT22;24982;52.344;12.990;2023-04-01T15:43:20;9.90;99.90
9662;DHT22;24982;52.344;12.990;2023-04-01T15:46:41;9.80;99.90
9662;DHT22;24982;52.344;12.990;2023-04-01T15:49:50;9.70;99.90
9662;DHT22;24982;52.344;12.990;2023-04-01T15:53:05;9.60;99.90
9662;DHT22;24982;52.344;12.990;2023-04-01T15:56:19;9.60;99.90
9662;DHT22;24982;52.344;12.990;2023-04-01T15:59:41;9.60;99.90
9662;DHT22;24982;52.344;12.990;2023-04-01T16:02:49;9.60;99.90
9662;DHT22;24982;52.344;12.990;2023-04-01T16:06:06;9.50;99.90
9662;DHT22;24982;52.344;12.990;2023-04-01T16:09:22;9.40;99.90
9662;DHT22;24982;52.344;12.990;2023-04-01T16:12:40;9.50;99.90
9662;DHT22;24982;52.344;12.990;2023-04-01T16:15:50;9.40;99.90
9662;DHT22;24982;52.344;12.990;2023-04-01T16:22:37;9.40;99.90
9662;DHT22;24982;52.344;12.990;2023-04-01T16:25:41;9.40;99.90
9662;DHT22;24982;52.344;12.990;2023-04-01T16:28:53;9.30;99.90
9662;DHT22;24982;52.344;12.990;2023-04-01T16:32:09;9.30;99.90
9662;DHT22;24982;52.344;12.990;2023-04-01T16:35:23;9.30;99.90
9662;DHT22;24982;52.344;12.990;2023-04-01T16:38:35;9.20;99.90
9662;DHT22;24982;52.344;12.990;2023-04-01T16:41:47;9.10;99.90
9662;DHT22;24982;52.344;12.990;2023-04-01T16:44:54;9.10;99.90
9662;DHT22;24982;52.344;12.990;2023-04-01T16:48:00;9.00;99.90
9662;DHT22;24982;52.344;12.990;2023-04-01T16:51:12;8.90;99.90
9662;DHT22;24982;52.344;12.990;2023-04-01T16:54:28;8.90;99.90
9662;DHT22;24982;52.344;12.990;2023-04-01T16:57:36;9.00;99.90
9662;DHT22;24982;52.344;12.990;2023-04-01T17:00:48;8.90;99.90
9662;DHT22;24982;52.344;12.990;2023-04-01T17:03:53;8.90;99.90
9662;DHT22;24982;52.344;12.990;2023-04-01T17:07:11;8.90;99.90
9662;DHT22;24982;52.344;12.990;2023-04-01T17:10:25;8.90;99.90
9662;DHT22;24982;52.344;12.990;2023-04-01T17:13:41;8.80;99.90
9662;DHT22;24982;52.344;12.990;2023-04-01T17:16:55;8.80;99.90
9662;DHT22;24982;52.344;12.990;2023-04-01T17:23:28;8.80;99.90
9662;DHT22;24982;52.344;12.990;2023-04-01T17:26:37;8.80;99.90
9662;DHT22;24982;52.344;12.990;2023-04-01T17:29:55;8.70;99.90
9662;DHT22;24982;52.344;12.990;2023-04-01T17:33:22;8.70;99.90
9662;DHT22;24982;52.344;12.990;2023-04-01T17:36:35;8.80;99.90
9662;DHT22;24982;52.344;12.990;2023-04-01T17:39:48;8.80;99.90
9662;DHT22;24982;52.344;12.990;2023-04-01T17:42:56;8.70;99.90
9662;DHT22;24982;52.344;12.990;2023-04-01T17:46:08;8.70;99.90
9662;DHT22;24982;52.344;12.990;2023-04-01T17:49:23;8.70;99.90
9662;DHT22;24982;52.344;12.990;2023-04-01T17:52:30;8.70;99.90
9662;DHT22;24982;52.344;12.990;2023-04-01T17:55:43;8.70;99.90
9662;DHT22;24982;52.344;12.990;2023-04-01T17:58:56;8.70;99.90
9662;DHT22;24982;52.344;12.990;2023-04-01T18:02:06;8.80;99.90
9662;DHT22;24982;52.344;12.990;2023-04-01T18:05:34;8.70;99.90
9662;DHT22;24982;52.344;12.990;2023-04-01T18:08:49;8.70;99.90
9662;DHT22;24982;52.344;12.990;2023-04-01T18:12:02;8.60;99.90
9662;DHT22;24982;52.344;12.990;2023-04-01T18:15:27;8.60;99.90
9662;DHT22;24982;52.344;12.990;2023-04-01T18:18:40;8.60;99.90
9662;DHT22;24982;52.344;12.990;2023-04-01T18:21:49;8.60;99.90
9662;DHT22;24982;52.344;12.990;2023-04-01T18:24:58;8.60;99.90
9662;DHT22;24982;52.344;12.990;2023-04-01T18:34:40;8.30;99.90
9662;DHT22;24982;52.344;12.990;2023-04-01T18:40:53;8.20;99.90
9662;DHT22;24982;52.344;12.990;2023-04-01T18:44:04;8.10;99.90
9662;DHT22;24982;52.344;12.990;2023-04-01T18:47:23;8.10;99.90
9662;DHT22;24982;52.344;12.990;2023-04-01T18:50:29;8.00;99.90
9662;DHT22;24982;52.344;12.990;2023-04-01T18:53:39;8.00;99.90
9662;DHT22;24982;52.344;12.990;2023-04-01T18:56:43;7.90;99.90
9662;DHT22;24982;52.344;12.990;2023-04-01T18:59:51;7.90;99.90
9662;DHT22;24982;52.344;12.990;2023-04-01T19:03:00;7.90;99.90
9662;DHT22;24982;52.344;12.990;2023-04-01T19:06:13;7.90;99.90
9662;DHT22;24982;52.344;12.990;2023-04-01T19:09:21;7.90;99.90
9662;DHT22;24982;52.344;12.990;2023-04-01T19:12:34;7.90;99.90
9662;DHT22;24982;52.344;12.990;2023-04-01T19:19:00;7.80;99.90
9662;DHT22;24982;52.344;12.990;2023-04-01T19:22:14;7.80;99.90
9662;DHT22;24982;52.344;12.990;2023-04-01T19:25:29;7.80;99.90
9662;DHT22;24982;52.344;12.990;2023-04-01T19:34:59;7.70;99.90
9662;DHT22;24982;52.344;12.990;2023-04-01T19:38:13;7.60;99.90
9662;DHT22;24982;52.344;12.990;2023-04-01T19:41:24;7.60;99.90
9662;DHT22;24982;52.344;12.990;2023-04-01T19:44:38;7.70;99.90
9662;DHT22;24982;52.344;12.990;2023-04-01T19:47:50;7.60;99.90
9662;DHT22;24982;52.344;12.990;2023-04-01T19:50:59;7.50;99.90
9662;DHT22;24982;52.344;12.990;2023-04-01T19:54:16;7.80;99.90
9662;DHT22;24982;52.344;12.990;2023-04-01T20:00:34;7.50;99.90
9662;DHT22;24982;52.344;12.990;2023-04-01T20:03:42;7.40;99.90
9662;DHT22;24982;52.344;12.990;2023-04-01T20:06:52;7.50;99.90
9662;DHT22;24982;52.344;12.990;2023-04-01T20:10:00;7.50;99.90
9662;DHT22;24982;52.344;12.990;2023-04-01T20:13:16;7.40;99.90
9662;DHT22;24982;52.344;12.990;2023-04-01T20:16:22;7.40;99.90
9662;DHT22;24982;52.344;12.990;2023-04-01T20:19:28;7.40;99.90
9662;DHT22;24982;52.344;12.990;2023-04-01T20:31:59;7.30;99.90
9662;DHT22;24982;52.344;12.990;2023-04-01T20:42:12;7.20;99.90
9662;DHT22;24982;52.344;12.990;2023-04-01T20:45:28;7.10;99.90
9662;DHT22;24982;52.344;12.990;2023-04-01T20:48:48;7.10;99.90
9662;DHT22;24982;52.344;12.990;2023-04-01T20:51:56;7.10;99.90
9662;DHT22;24982;52.344;12.990;2023-04-01T20:55:18;7.10;99.90
9662;DHT22;24982;52.344;12.990;2023-04-01T21:01:40;6.80;99.90
9662;DHT22;24982;52.344;12.990;2023-04-01T21:05:00;7.00;99.90
9662;DHT22;24982;52.344;12.990;2023-04-01T21:08:11;7.10;99.90
9662;DHT22;24982;52.344;12.990;2023-04-01T21:11:20;7.00;99.90
9662;DHT22;24982;52.344;12.990;2023-04-01T21:14:43;7.10;99.90
9662;DHT22;24982;52.344;12.990;2023-04-01T21:17:58;7.10;99.90
9662;DHT22;24982;52.344;12.990;2023-04-01T21:21:26;7.10;99.90
9662;DHT22;24982;52.344;12.990;2023-04-01T21:28:30;7.10;99.90
9662;DHT22;24982;52.344;12.990;2023-04-01T21:34:51;6.90;99.90
9662;DHT22;24982;52.344;12.990;2023-04-01T21:38:17;6.90;99.90
9662;DHT22;24982;52.344;12.990;2023-04-01T21:41:38;6.90;99.90
9662;DHT22;24982;52.344;12.990;2023-04-01T21:58:46;6.60;99.90
9662;DHT22;24982;52.344;12.990;2023-04-01T22:02:10;6.70;99.90
9662;DHT22;24982;52.344;12.990;2023-04-01T22:05:18;6.90;99.90
9662;DHT22;24982;52.344;12.990;2023-04-01T22:18:06;6.70;99.90
9662;DHT22;24982;52.344;12.990;2023-04-01T22:21:20;6.70;99.90
9662;DHT22;24982;52.344;12.990;2023-04-01T22:24:34;6.70;99.90
9662;DHT22;24982;52.344;12.990;2023-04-01T23:02:13;6.30;99.90
9662;DHT22;24982;52.344;12.990;2023-04-01T23:05:20;6.50;99.90
9662;DHT22;24982;52.344;12.990;2023-04-01T23:21:26;6.30;99.90
9662;DHT22;24982;52.344;12.990;2023-04-01T23:24:36;6.30;99.90
9662;DHT22;24982;52.344;12.990;2023-04-01T23:27:43;6.20;99.90
9662;DHT22;24982;52.344;12.990;2023-04-01T23:30:49;6.20;99.90
9662;DHT22;24982;52.344;12.990;2023-04-01T23:33:54;5.70;99.90
9662;DHT22;24982;52.344;12.990;2023-04-01T23:36:58;6.30;99.90
9662;DHT22;24982;52.344;12.990;2023-04-01T23:40:02;6.30;99.90
9662;DHT22;24982;52.344;12.990;2023-04-01T23:43:13;6.20;99.90
9662;DHT22;24982;52.344;12.990;2023-04-01T23:46:17;6.20;99.90
9662;DHT22;24982;52.344;12.990;2023-04-01T23:49:23;6.20;99.90
9662;DHT22;24982;52.344;12.990;2023-04-01T23:52:29;6.40;99.90
9662;DHT22;24982;52.344;12.990;2023-04-01T23:55:33;6.20;99.90
9662;DHT22;24982;52.344;12.990;2023-04-01T23:58:42;6.20;99.90
